Pagina principale
METAR-TAF:

METAR-TAF

Aeroporti :

Aeroporto di Decimomannu

Decimomannu, Italia

latitudine: 39-21N, longitudine: 008-58E, altezza: 29 m

Osservazione

Il bollettino è stato emesso 52 minuti fa, alle 21:55 UTC
Vento 1 kt da est/nord-est
Temperature 15°C
Umidità 77%
Pressione 1015 hPa
Visibilità 10 km o più
nessuna nube inferiore a 1500 m e nessun cumulonembo

METAR: LIED 152155Z 06001KT CAVOK 15/11 Q1015 RMK SKC VIS MIN 9999 WIND THR35 17002KT WIND THR17 08002KT BLU

Ora: 00:47 (22:47 UTC)

Previsione

Il bollettino è stato emesso 2 ore e 47 minuti fa, alle 20:00 UTC
Previsione valida dal 15 alle 21 UTC al 16 alle 06 UTC
Vento 3 kt da direzioni variabili
Visibilità 10 km o più
nessuna nube inferiore a 1500 m e nessun cumulonembo

TAF: LIED 152000Z 1521/1606 VRB03KT CAVOK

Osservazioni e previsioni meteorologiche di più di 4000 aeroporti (messaggi METAR e TAF).

Le stazioni disponibili sono rappresentate dai dischi gialli e rossi sulla carta.

Puntare il mouse per vedere il nome della stazione.

Clicca sopra per visualizzare le osservazioni e previsioni meteorologiche.

Per cambiare la mappa : fare clic sui pulsanti verdi con una croce nera per ingrandire, il pulsante verde con un trattino per diminuire, o sulla freccia verde per le mappe adiacenti.


METAR-TAF: